Terminal Aerodrome Forecast
Issued by NWS Topeka, KS

Home | Current Version | Previous Version | Text Only | Print | Product List | Glossary On
Versions: 1 2 3 4 5 6 7 8 9 10 11 12 13 14 15 16 17 18 19 20
101
FTUS43 KTOP 270520
TAFTOP
TAF
KTOP 270520Z 2706/2806 08010KT 4SM -TSRA SCT009 BKN035CB
      TEMPO 2706/2707 27020G35KT 3SM TSRA OVC025CB
     FM270900 14010KT P6SM OVC015
     FM271600 16009KT P6SM VCTS BKN015CB
     FM272100 17010KT P6SM VCTS SCT020 BKN050CB=

USA.gov is the U.S. government's official web portal to all federal, state and local government web resources and services.